메인 페이지
METAR-TAF:

METAR-TAF

공항 :

Naval Air Station JRB Fort Worth (Carswell Field)

포트워스, 텍사스, 미국

위도: 32-45-57N, 경도: 097-26-00W, 고도: 198m

현재 날씨관측

예보는 40분 전, 20:52시(UTC)에 발표되었습니다.
여러 방향의 바람 3kt
온도 37°C
습도 27%
기압 1012 hPa
시정: 16.1km
고도 5500ft 상공 구름 조금
고도 25000ft 상공 구름 조금

METAR: KNFW 212052Z VRB03KT 10SM FEW055 FEW250 37/15 A2988 RMK AO2 SLP101 T03670150 56016 $

시각: 16:32 (21:32 UTC)

예보

예보 대상 시간: 21일 15시부터 22일 15시까지 (UTC)
여러 방향의 바람 6kt
시정 10km 이상
고도 25000ft 상공 구름 조금

TAF: KNFW 2115/2215 VRB06KT 9999 FEW250 QNH2985INS T35/2123Z T24/2212Z FN20046

4,000개 이상의 공항 관측 자료 및 예보 (METAR 및 TAF 보고).

지도상에서 검색 가능한 기상관측소가 노란 점과 빨간 점으로 표시되어 있습니다.

기상관측소 명을 보려면 표시 위로 마우스를 이동하세요.

날씨 관측과 예보를 보려면 클릭하세요.

지도 변경 : 확대하려면 엑스 표시가 있는 녹색 버튼, 축소하려면 빼기 표시가 있는 녹색 버튼, 다음 페이지의 지도를 보려면 녹색 화살표를 클릭하세요.


METAR-TAF: